Aviation Digital Data Service (ADDS)

Output produced by METARs form (2118 UTC 21 May 2022)
found at http://www.aviationweather.gov/metar/data/
 
TAF FKKD 211100Z 2112/2218 VRB04KT 9999 SCT013 FEW016CB 
     BECMG 2118/2120 BKN013 FEW016CB 
     PROB30 2201/2205 4000 TSRA 
     TEMPO 2205/2208 2000 BR 
     BECMG 2209/2211 BKN016 FEW020CB
       
FKYS 211600Z 22005KT 9999 BKN020 28/23 Q1015 NOSIG
TAF FKYS 211100Z 2112/2212 VRB04KT 9999 BKN016 
     BECMG 2121/2123 BKN006 
     TEMPO 2203/2207 2000 BR 
     BECMG 2209/2211 BKN016